createdAt,value
2018-03-07T07:14:59.694Z,28.80
2018-03-07T07:17:28.116Z,28.80
2018-03-07T07:19:56.495Z,27.80
2018-03-07T07:22:25.580Z,28.60
2018-03-07T07:24:53.790Z,28.20
2018-03-07T07:27:22.118Z,28.80
2018-03-07T07:29:50.993Z,28.50
2018-03-07T07:32:29.654Z,28.50
2018-03-07T07:38:00.586Z,27.80
2018-03-07T07:43:25.914Z,26.90
2018-03-07T07:46:02.484Z,26.80
2018-03-07T07:48:32.488Z,26.80
2018-03-07T07:51:00.768Z,26.50
2018-03-07T07:53:33.903Z,26.60
2018-03-07T07:56:02.229Z,26.50
2018-03-07T07:58:31.133Z,26.50
2018-03-07T08:00:59.309Z,26.50
2018-03-07T08:03:27.654Z,26.40
2018-03-07T08:05:55.920Z,26.40
2018-03-07T08:08:24.741Z,27.70
2018-03-07T08:10:52.592Z,27.70
2018-03-07T08:13:20.992Z,27.40
2018-03-07T08:15:49.041Z,27.20
2018-03-07T08:18:17.941Z,27.70
2018-03-07T08:20:46.914Z,27.60
2018-03-07T08:23:14.891Z,27.60
2018-03-07T08:25:43.774Z,27.10
2018-03-07T08:28:12.589Z,27.00
2018-03-07T08:30:40.664Z,26.90
2018-03-07T08:33:08.905Z,27.50
2018-03-07T08:35:42.506Z,27.70
2018-03-07T08:38:10.828Z,27.90
2018-03-07T08:40:38.938Z,28.50
2018-03-07T08:43:07.337Z,28.00
2018-03-07T08:45:36.243Z,27.40
2018-03-07T08:48:04.383Z,27.40
2018-03-07T08:50:32.401Z,28.10
2018-03-07T08:53:00.779Z,28.10
2018-03-07T08:55:28.992Z,28.10
2018-03-07T08:57:56.875Z,27.70
2018-03-07T09:00:25.945Z,27.80
2018-03-07T09:02:53.993Z,27.70
2018-03-07T09:05:22.045Z,27.70
2018-03-07T09:07:50.146Z,27.80
2018-03-07T09:10:18.247Z,28.10
2018-03-07T09:12:47.694Z,28.10
2018-03-07T09:15:16.841Z,28.10
2018-03-07T09:17:45.250Z,28.00
2018-03-07T09:20:13.366Z,28.00
2018-03-07T09:22:42.071Z,28.00
2018-03-07T09:25:10.754Z,27.90
2018-03-07T09:27:39.039Z,27.80
2018-03-07T09:30:07.854Z,27.90
2018-03-07T09:32:36.423Z,27.90
2018-03-07T09:35:07.443Z,27.90
2018-03-07T09:37:40.847Z,28.00
2018-03-07T09:40:08.747Z,28.00
2018-03-07T09:42:37.634Z,28.30
2018-03-07T09:45:05.722Z,28.10
2018-03-07T09:47:33.624Z,28.70
2018-03-07T09:50:02.409Z,28.20
2018-03-07T09:52:30.969Z,28.20
2018-03-07T09:54:59.224Z,28.10
2018-03-07T09:57:27.137Z,28.00
2018-03-07T09:59:55.204Z,28.00
2018-03-07T10:02:25.286Z,28.40
2018-03-07T10:04:53.581Z,28.30
2018-03-07T10:07:22.474Z,28.50
2018-03-07T10:09:50.288Z,28.40
2018-03-07T10:12:18.627Z,28.00
2018-03-07T10:14:47.225Z,28.10
2018-03-07T10:17:15.572Z,27.90
2018-03-07T10:19:44.060Z,28.60
2018-03-07T10:22:11.988Z,28.70
2018-03-07T10:24:40.393Z,28.60
2018-03-07T10:27:08.835Z,28.20
2018-03-07T10:29:37.064Z,28.20
2018-03-07T10:32:05.831Z,28.20
2018-03-07T10:34:34.069Z,28.20
2018-03-07T10:37:01.973Z,28.20
2018-03-07T10:39:30.652Z,28.20
2018-03-07T10:41:58.692Z,28.20
2018-03-07T10:44:26.801Z,27.90
2018-03-07T10:46:54.942Z,27.90
2018-03-07T10:49:24.119Z,28.60
2018-03-07T10:54:44.986Z,28.30
2018-03-07T10:57:13.417Z,28.30
2018-03-07T10:59:41.697Z,28.10
2018-03-07T11:02:10.092Z,28.10
2018-03-07T11:04:38.411Z,28.20
2018-03-07T12:02:03.750Z,28.20
2018-03-07T12:07:49.505Z,30.10
2018-03-07T12:19:18.688Z,29.40
2018-03-07T12:35:06.916Z,28.90
2018-03-07T12:38:41.945Z,29.00
2018-03-07T12:44:16.581Z,29.60
2018-03-07T12:46:57.172Z,29.60
2018-03-07T12:49:41.504Z,29.20
2018-03-07T13:03:42.004Z,28.40
2018-03-07T13:06:47.102Z,28.40
2018-03-07T13:09:22.638Z,28.80
2018-03-07T13:12:06.529Z,29.10
2018-03-07T13:14:48.196Z,29.60
2018-03-07T13:23:02.388Z,28.80
2018-03-07T13:52:46.913Z,28.60
2018-03-07T14:00:54.303Z,28.10
2018-03-07T14:03:48.923Z,27.80
2018-03-07T14:15:04.774Z,28.30
2018-03-07T14:17:58.067Z,28.10
2018-03-07T14:54:27.387Z,28.60
2018-03-07T14:57:09.815Z,27.80
2018-03-07T15:00:00.034Z,28.30
2018-03-07T15:11:34.307Z,28.70
2018-03-07T15:20:09.888Z,29.20
2018-03-07T15:49:46.638Z,28.90
